Time;durP1;ratioP1;P1;durP2;ratioP2;P2;SDS_P1;SDS_P2;PMS_P1;PMS_P2;Temp;Humidity;BMP_temperature;BMP_pressure;BME280_temperature;BME280_humidity;BME280_pressure;Samples;Min_cycle;Max_cycle;Signal;HPM_P1;HPM_P2
2021/12/05 00:21:33;;;;;;;9.63;2.65;;;;;;;;;;4975967;28;20562;-79
2021/12/05 00:24:04;;;;;;;9.77;2.22;;;;;;;;;;4976427;28;20202;-78
2021/12/05 00:26:31;;;;;;;5.70;1.95;;;;;;;;;;4976697;28;20308;-79
2021/12/05 00:29:23;;;;;;;9.98;3.63;;;;;;;;;;4976731;28;20191;-80
2021/12/05 00:37:36;;;;;;;9.77;2.30;;;;;;;;;;4976394;28;20648;-79
2021/12/05 00:43:14;;;;;;;12.68;2.35;;;;;;;;;;4976391;28;20178;-81
2021/12/05 00:50:53;;;;;;;8.80;2.20;;;;;;;;;;4975781;28;20211;-80
2021/12/05 01:07:05;;;;;;;9.95;2.55;;;;;;;;;;4975924;28;20274;-79
2021/12/05 01:09:38;;;;;;;8.25;2.38;;;;;;;;;;4975186;28;20194;-79
2021/12/05 01:12:20;;;;;;;9.85;2.80;;;;;;;;;;4975347;28;20273;-80
2021/12/05 01:17:25;;;;;;;6.07;2.55;;;;;;;;;;4975861;28;20594;-80
2021/12/05 01:19:51;;;;;;;8.15;3.30;;;;;;;;;;4975251;28;20276;-80
2021/12/05 01:22:19;;;;;;;5.00;2.80;;;;;;;;;;4975581;28;20278;-80
2021/12/05 01:25:12;;;;;;;12.80;3.13;;;;;;;;;;4975557;28;20179;-80
2021/12/05 01:27:53;;;;;;;6.50;2.17;;;;;;;;;;4975489;28;20627;-80
2021/12/05 01:33:39;;;;;;;5.32;2.08;;;;;;;;;;4962754;28;20218;-79
2021/12/05 01:36:12;;;;;;;7.65;2.50;;;;;;;;;;4975204;28;20721;-80
2021/12/05 01:58:12;;;;;;;12.18;3.38;;;;;;;;;;4943547;28;20196;-80
2021/12/05 02:16:41;;;;;;;15.57;3.22;;;;;;;;;;4974814;28;20188;-79
2021/12/05 02:38:09;;;;;;;7.43;2.25;;;;;;;;;;4974838;28;20179;-78
2021/12/05 02:46:00;;;;;;;4.07;1.23;;;;;;;;;;4978384;28;20187;-79
2021/12/05 02:48:29;;;;;;;6.90;1.80;;;;;;;;;;4978243;28;20175;-79
2021/12/05 02:50:55;;;;;;;8.85;2.63;;;;;;;;;;4977731;28;20210;-79
2021/12/05 02:53:31;;;;;;;8.52;2.15;;;;;;;;;;4978204;28;20194;-80
2021/12/05 02:55:58;;;;;;;12.68;2.50;;;;;;;;;;4977268;28;20645;-80
2021/12/05 02:58:41;;;;;;;9.10;1.65;;;;;;;;;;4978060;28;21071;-79
2021/12/05 03:01:42;;;;;;;5.40;1.63;;;;;;;;;;4976506;28;20645;-79
2021/12/05 03:04:03;;;;;;;6.57;1.70;;;;;;;;;;4977764;28;20190;-79
2021/12/05 03:06:31;;;;;;;5.65;1.77;;;;;;;;;;4978045;28;20179;-78
2021/12/05 03:08:59;;;;;;;9.07;2.28;;;;;;;;;;4977767;28;20652;-80
2021/12/05 03:11:26;;;;;;;5.13;1.60;;;;;;;;;;4977571;28;20742;-80
2021/12/05 03:13:52;;;;;;;4.70;1.95;;;;;;;;;;4977833;28;20216;-79
2021/12/05 03:16:19;;;;;;;5.40;2.13;;;;;;;;;;4977843;28;20262;-79
2021/12/05 03:18:45;;;;;;;7.78;2.15;;;;;;;;;;4976840;28;20622;-79
2021/12/05 03:21:11;;;;;;;6.43;1.70;;;;;;;;;;4976192;28;20207;-78
2021/12/05 03:23:39;;;;;;;7.68;2.03;;;;;;;;;;4977751;28;20659;-78
2021/12/05 03:26:06;;;;;;;6.88;1.58;;;;;;;;;;4977695;28;20213;-80
2021/12/05 03:28:32;;;;;;;6.63;2.03;;;;;;;;;;4977782;28;20199;-79
2021/12/05 03:30:59;;;;;;;7.25;1.75;;;;;;;;;;4977056;28;20207;-81
2021/12/05 03:33:25;;;;;;;2.75;1.58;;;;;;;;;;4977575;28;20207;-79
2021/12/05 03:35:51;;;;;;;14.15;2.38;;;;;;;;;;4976256;28;20230;-80
2021/12/05 03:38:17;;;;;;;6.32;1.58;;;;;;;;;;4977501;28;20175;-79
2021/12/05 03:40:43;;;;;;;7.95;2.08;;;;;;;;;;4977052;28;20783;-79
2021/12/05 03:43:10;;;;;;;5.90;2.00;;;;;;;;;;4977287;28;20518;-78
2021/12/05 03:45:38;;;;;;;3.80;1.60;;;;;;;;;;4977611;28;20255;-79
2021/12/05 03:48:06;;;;;;;6.18;2.15;;;;;;;;;;4977430;28;20207;-80
2021/12/05 03:50:32;;;;;;;6.70;1.45;;;;;;;;;;4976704;28;20268;-80
2021/12/05 03:52:58;;;;;;;10.18;1.88;;;;;;;;;;4977084;28;20304;-79
2021/12/05 03:55:24;;;;;;;5.32;1.30;;;;;;;;;;4974883;28;20201;-80
2021/12/05 03:57:50;;;;;;;4.50;1.90;;;;;;;;;;4977163;28;20543;-79
2021/12/05 04:00:24;;;;;;;4.50;1.23;;;;;;;;;;4976679;28;20206;-81
2021/12/05 04:02:51;;;;;;;6.05;1.80;;;;;;;;;;4977029;28;20179;-79
2021/12/05 04:05:17;;;;;;;7.95;2.13;;;;;;;;;;4977868;28;20191;-80
2021/12/05 04:07:43;;;;;;;6.45;2.65;;;;;;;;;;4976882;28;20265;-79
2021/12/05 04:10:11;;;;;;;6.45;1.35;;;;;;;;;;4976408;28;20655;-78
2021/12/05 04:12:37;;;;;;;3.65;1.60;;;;;;;;;;4976781;28;20203;-80
2021/12/05 04:15:04;;;;;;;7.75;1.45;;;;;;;;;;4976605;28;20508;-79
2021/12/05 04:17:30;;;;;;;7.20;1.75;;;;;;;;;;4975506;28;20199;-78
2021/12/05 04:19:56;;;;;;;6.25;2.20;;;;;;;;;;4976414;28;20176;-80
2021/12/05 04:22:23;;;;;;;5.97;2.15;;;;;;;;;;4976847;28;20188;-79
2021/12/05 04:24:49;;;;;;;9.07;3.47;;;;;;;;;;4976563;28;20194;-80
2021/12/05 04:27:15;;;;;;;6.93;1.65;;;;;;;;;;4976476;28;20198;-80
2021/12/05 04:29:41;;;;;;;3.47;1.65;;;;;;;;;;4975169;28;20277;-79
2021/12/05 04:32:08;;;;;;;3.17;1.10;;;;;;;;;;4976260;28;20199;-80
2021/12/05 04:34:34;;;;;;;6.15;1.55;;;;;;;;;;4976591;28;20256;-78
2021/12/05 04:37:00;;;;;;;4.28;2.13;;;;;;;;;;4976475;28;20531;-79
2021/12/05 04:39:28;;;;;;;5.45;2.13;;;;;;;;;;4976184;28;20544;-79
2021/12/05 04:41:55;;;;;;;9.27;3.25;;;;;;;;;;4976392;28;20191;-80
2021/12/05 04:44:22;;;;;;;6.10;1.55;;;;;;;;;;4976489;28;20187;-79
2021/12/05 04:46:48;;;;;;;10.15;3.08;;;;;;;;;;4976274;28;20175;-80
2021/12/05 04:49:14;;;;;;;8.95;1.58;;;;;;;;;;4975797;28;20180;-80
2021/12/05 04:51:43;;;;;;;8.35;1.80;;;;;;;;;;4975937;28;20220;-80
2021/12/05 04:54:10;;;;;;;8.63;2.10;;;;;;;;;;4976010;28;20720;-79
2021/12/05 04:56:36;;;;;;;7.85;1.92;;;;;;;;;;4976115;28;20181;-78
2021/12/05 04:59:04;;;;;;;8.38;2.05;;;;;;;;;;4976240;28;20777;-79
2021/12/05 05:01:30;;;;;;;11.13;1.83;;;;;;;;;;4974282;28;20229;-80
2021/12/05 05:03:57;;;;;;;5.35;1.58;;;;;;;;;;4974622;28;20188;-79
2021/12/05 05:06:23;;;;;;;4.38;1.85;;;;;;;;;;4975748;28;20179;-80
2021/12/05 05:08:54;;;;;;;3.08;1.40;;;;;;;;;;4975984;28;20185;-78
2021/12/05 05:11:21;;;;;;;8.25;2.35;;;;;;;;;;4975403;28;20240;-79
2021/12/05 05:13:47;;;;;;;4.45;1.60;;;;;;;;;;4975394;28;20300;-79
2021/12/05 05:16:15;;;;;;;7.45;1.48;;;;;;;;;;4975788;28;20227;-79
2021/12/05 05:19:00;;;;;;;3.72;1.23;;;;;;;;;;4975647;28;20200;-80
2021/12/05 05:21:50;;;;;;;4.60;1.40;;;;;;;;;;4975310;28;20200;-79
2021/12/05 05:29:51;;;;;;;10.60;1.70;;;;;;;;;;4975529;28;20208;-80
2021/12/05 05:50:14;;;;;;;5.80;1.52;;;;;;;;;;4974919;28;20208;-79
2021/12/05 05:52:40;;;;;;;7.18;1.73;;;;;;;;;;4974939;28;20216;-78
2021/12/05 05:55:07;;;;;;;3.72;1.33;;;;;;;;;;4973968;28;20177;-79
2021/12/05 05:57:40;;;;;;;6.30;3.75;;;;;;;;;;4974911;28;20164;-79
2021/12/05 06:00:13;;;;;;;4.60;1.50;;;;;;;;;;4974541;28;20198;-79
2021/12/05 06:05:24;;;;;;;3.97;1.38;;;;;;;;;;4974970;28;20247;-80
2021/12/05 06:07:50;;;;;;;3.33;1.40;;;;;;;;;;4974702;28;20264;-79
2021/12/05 06:10:22;;;;;;;4.70;1.60;;;;;;;;;;4957042;28;20673;-79
2021/12/05 06:12:48;;;;;;;4.28;1.90;;;;;;;;;;4974740;28;20602;-79
2021/12/05 06:15:15;;;;;;;2.55;1.58;;;;;;;;;;4974585;28;20196;-79
2021/12/05 06:17:41;;;;;;;6.97;1.75;;;;;;;;;;4974190;28;20211;-79
2021/12/05 06:20:09;;;;;;;4.00;1.88;;;;;;;;;;4974243;28;20299;-79
2021/12/05 06:22:35;;;;;;;5.50;1.77;;;;;;;;;;4974670;28;20172;-79
2021/12/05 06:25:02;;;;;;;9.27;1.80;;;;;;;;;;4974649;28;20172;-79
2021/12/05 06:27:28;;;;;;;5.18;1.75;;;;;;;;;;4974735;28;20209;-79
2021/12/05 06:30:05;;;;;;;4.43;1.48;;;;;;;;;;4974278;28;20282;-79
2021/12/05 06:43:05;;;;;;;4.97;1.65;;;;;;;;;;4974928;28;20195;-78
2021/12/05 06:48:16;;;;;;;9.73;1.70;;;;;;;;;;4974661;28;20620;-78
2021/12/05 06:50:42;;;;;;;3.50;1.63;;;;;;;;;;4973887;28;20712;-79
2021/12/05 06:53:08;;;;;;;3.90;1.75;;;;;;;;;;4957099;28;20204;-78
2021/12/05 06:55:35;;;;;;;21.00;2.90;;;;;;;;;;4974305;28;20176;-77
2021/12/05 06:58:01;;;;;;;6.75;2.10;;;;;;;;;;4974247;28;20184;-78
2021/12/05 07:00:28;;;;;;;3.40;1.95;;;;;;;;;;4973725;28;20196;-79
2021/12/05 07:02:54;;;;;;;3.55;1.90;;;;;;;;;;4974284;28;20172;-78
2021/12/05 07:08:05;;;;;;;6.65;1.83;;;;;;;;;;4974413;28;20203;-78
2021/12/05 07:10:37;;;;;;;6.38;2.05;;;;;;;;;;4972337;28;20343;-78
2021/12/05 07:15:42;;;;;;;12.10;2.50;;;;;;;;;;4974061;28;20264;-79
2021/12/05 07:23:56;;;;;;;4.80;3.58;;;;;;;;;;4974313;28;20189;-79
2021/12/05 07:42:47;;;;;;;3.28;2.55;;;;;;;;;;4977647;28;20198;-78
2021/12/05 07:45:18;;;;;;;3.22;2.15;;;;;;;;;;4977550;28;20184;-78
2021/12/05 07:47:46;;;;;;;4.72;2.65;;;;;;;;;;4977406;28;20203;-79
2021/12/05 07:50:14;;;;;;;3.67;2.30;;;;;;;;;;4975551;28;20221;-77
2021/12/05 07:52:43;;;;;;;3.42;2.20;;;;;;;;;;4977236;28;20301;-79
2021/12/05 07:55:20;;;;;;;6.95;2.40;;;;;;;;;;4976126;28;20196;-80
2021/12/05 07:58:03;;;;;;;5.07;2.20;;;;;;;;;;4977435;28;20251;-80
2021/12/05 08:00:40;;;;;;;3.90;2.35;;;;;;;;;;4975757;28;20656;-79
2021/12/05 08:14:33;;;;;;;3.33;2.33;;;;;;;;;;4976918;28;20264;-79
2021/12/05 08:17:00;;;;;;;3.72;2.10;;;;;;;;;;4976865;28;20172;-80
2021/12/05 08:19:26;;;;;;;2.97;2.33;;;;;;;;;;4976533;28;20587;-80
2021/12/05 08:21:55;;;;;;;4.60;2.50;;;;;;;;;;4976947;28;20312;-78
2021/12/05 08:24:23;;;;;;;4.10;2.42;;;;;;;;;;4976952;28;20422;-79
2021/12/05 08:26:51;;;;;;;5.57;2.70;;;;;;;;;;4976653;28;20210;-79
2021/12/05 08:29:28;;;;;;;2.85;2.15;;;;;;;;;;4975557;28;20266;-79
2021/12/05 08:32:06;;;;;;;2.80;2.20;;;;;;;;;;4976838;28;20195;-79
2021/12/05 08:35:00;;;;;;;2.28;2.08;;;;;;;;;;4975842;28;20273;-79
2021/12/05 09:29:03;;;;;;;5.00;2.10;;;;;;;;;;4976099;28;20184;-82
2021/12/05 10:14:56;;;;;;;2.15;1.70;;;;;;;;;;4978741;28;20179;-81
2021/12/05 10:17:43;;;;;;;3.17;1.80;;;;;;;;;;4977477;28;20156;-81
2021/12/05 10:26:03;;;;;;;1.50;1.25;;;;;;;;;;4974847;28;20270;-79
2021/12/05 10:35:19;;;;;;;1.63;1.45;;;;;;;;;;4991696;28;20687;-80
2021/12/05 10:37:55;;;;;;;1.45;1.33;;;;;;;;;;4992624;28;20191;-80
2021/12/05 10:40:30;;;;;;;1.30;1.20;;;;;;;;;;4991420;28;20187;-80
2021/12/05 10:42:56;;;;;;;1.55;1.30;;;;;;;;;;4994958;28;20182;-80
2021/12/05 10:45:22;;;;;;;2.33;1.42;;;;;;;;;;4993021;28;20186;-80
2021/12/05 10:47:50;;;;;;;1.87;1.30;;;;;;;;;;4993799;28;20178;-81
2021/12/05 10:50:28;;;;;;;2.40;1.60;;;;;;;;;;4992902;28;20462;-79
2021/12/05 10:53:13;;;;;;;1.77;1.10;;;;;;;;;;4993635;28;20660;-80
2021/12/05 10:55:38;;;;;;;1.25;1.10;;;;;;;;;;4994124;28;20173;-80
2021/12/05 10:58:05;;;;;;;1.73;1.30;;;;;;;;;;4993501;28;20202;-80
2021/12/05 11:00:31;;;;;;;2.80;1.30;;;;;;;;;;4993345;28;20433;-81
2021/12/05 11:03:14;;;;;;;1.63;1.23;;;;;;;;;;4993737;28;20180;-80
2021/12/05 11:05:41;;;;;;;2.05;1.20;;;;;;;;;;4997011;28;20697;-80
2021/12/05 11:08:27;;;;;;;2.20;0.70;;;;;;;;;;4997842;28;20177;-81
2021/12/05 11:11:05;;;;;;;2.55;0.90;;;;;;;;;;4995642;28;20563;-80
2021/12/05 11:13:31;;;;;;;3.50;1.20;;;;;;;;;;4997902;28;20689;-81
2021/12/05 11:15:57;;;;;;;1.70;0.90;;;;;;;;;;4997293;28;20582;-81
2021/12/05 11:18:42;;;;;;;1.70;1.08;;;;;;;;;;4997081;28;20523;-80
2021/12/05 11:21:31;;;;;;;1.35;0.98;;;;;;;;;;4996809;28;20217;-81
2021/12/05 11:24:05;;;;;;;2.55;0.90;;;;;;;;;;4997075;28;20237;-80
2021/12/05 11:26:33;;;;;;;0.90;0.60;;;;;;;;;;4997229;28;20175;-83
2021/12/05 11:28:59;;;;;;;3.28;1.15;;;;;;;;;;4996798;28;20176;-82
2021/12/05 11:31:29;;;;;;;1.30;0.80;;;;;;;;;;4984463;28;20217;-80
2021/12/05 11:33:56;;;;;;;1.92;1.15;;;;;;;;;;4996471;28;20203;-80
2021/12/05 11:36:23;;;;;;;1.70;0.93;;;;;;;;;;4996297;28;20167;-80
2021/12/05 11:38:49;;;;;;;1.20;0.88;;;;;;;;;;4991088;28;20674;-79
2021/12/05 11:41:20;;;;;;;2.55;0.90;;;;;;;;;;4995743;28;20199;-80
2021/12/05 11:43:49;;;;;;;1.65;0.90;;;;;;;;;;4996393;28;20167;-81
2021/12/05 11:46:20;;;;;;;1.83;1.00;;;;;;;;;;4996734;28;20187;-79
2021/12/05 11:48:45;;;;;;;2.30;0.80;;;;;;;;;;4996551;28;20270;-81
2021/12/05 11:51:29;;;;;;;2.00;0.87;;;;;;;;;;4996310;28;20642;-79
2021/12/05 11:53:57;;;;;;;2.95;1.10;;;;;;;;;;4996512;28;20457;-81
2021/12/05 11:56:43;;;;;;;0.90;0.80;;;;;;;;;;4995574;28;20183;-79
2021/12/05 11:59:18;;;;;;;1.77;1.10;;;;;;;;;;4989132;28;20188;-79
2021/12/05 12:01:59;;;;;;;1.60;1.05;;;;;;;;;;4996270;28;20189;-80
2021/12/05 12:04:26;;;;;;;1.63;1.10;;;;;;;;;;4997485;28;20175;-79
2021/12/05 12:07:10;;;;;;;2.60;0.98;;;;;;;;;;4995028;28;20664;-79
2021/12/05 12:09:36;;;;;;;1.70;1.00;;;;;;;;;;4996142;28;20176;-77
2021/12/05 12:12:03;;;;;;;1.65;0.98;;;;;;;;;;4996273;28;20241;-80
2021/12/05 12:14:29;;;;;;;1.92;1.00;;;;;;;;;;4994757;28;20212;-78
2021/12/05 12:16:57;;;;;;;1.17;1.08;;;;;;;;;;4995367;28;20310;-81
2021/12/05 12:19:23;;;;;;;1.70;0.98;;;;;;;;;;4995905;28;20171;-78
2021/12/05 12:21:52;;;;;;;3.33;1.17;;;;;;;;;;4995987;28;20253;-79
2021/12/05 12:24:18;;;;;;;3.67;1.75;;;;;;;;;;4996609;28;20171;-79
2021/12/05 12:26:45;;;;;;;7.03;4.28;;;;;;;;;;4995925;28;20179;-81
2021/12/05 12:29:12;;;;;;;3.85;1.90;;;;;;;;;;4995771;28;20201;-79
2021/12/05 12:31:41;;;;;;;2.70;1.98;;;;;;;;;;4995919;28;20204;-78
2021/12/05 12:34:08;;;;;;;1.45;1.25;;;;;;;;;;4995789;28;20195;-77
2021/12/05 12:36:34;;;;;;;1.45;1.05;;;;;;;;;;4995960;28;20171;-77
2021/12/05 12:39:04;;;;;;;3.00;1.60;;;;;;;;;;4994387;28;20179;-77
2021/12/05 12:41:30;;;;;;;4.78;2.25;;;;;;;;;;4995271;28;20445;-79
2021/12/05 12:44:01;;;;;;;1.98;1.13;;;;;;;;;;4995565;28;20231;-78
2021/12/05 12:46:34;;;;;;;2.38;1.00;;;;;;;;;;4995600;28;20259;-78
2021/12/05 12:49:15;;;;;;;2.03;1.27;;;;;;;;;;4994866;28;20211;-80
2021/12/05 12:51:42;;;;;;;1.95;1.73;;;;;;;;;;4994032;28;20646;-79
2021/12/05 12:54:10;;;;;;;4.57;2.78;;;;;;;;;;4995300;28;20199;-77
2021/12/05 12:56:39;;;;;;;4.70;3.85;;;;;;;;;;4995506;28;20171;-76
2021/12/05 12:59:06;;;;;;;4.22;3.05;;;;;;;;;;4995183;28;20254;-77
2021/12/05 13:04:29;;;;;;;2.20;1.57;;;;;;;;;;4995453;28;20270;-79
2021/12/05 13:12:35;;;;;;;2.50;1.35;;;;;;;;;;4995108;28;20819;-79
2021/12/05 13:15:06;;;;;;;1.40;1.05;;;;;;;;;;4994910;28;20226;-77
2021/12/05 13:17:42;;;;;;;2.58;1.30;;;;;;;;;;4994854;28;20584;-78
2021/12/05 13:20:10;;;;;;;2.85;1.20;;;;;;;;;;4994517;28;20211;-76
2021/12/05 13:22:59;;;;;;;2.35;1.00;;;;;;;;;;4993469;28;20180;-79
2021/12/05 13:25:25;;;;;;;5.07;1.40;;;;;;;;;;4994648;28;20263;-79
2021/12/05 13:27:51;;;;;;;1.30;1.00;;;;;;;;;;4977744;28;20275;-77
2021/12/05 13:30:34;;;;;;;3.70;1.23;;;;;;;;;;4995718;28;20199;-79
2021/12/05 13:33:19;;;;;;;2.83;1.10;;;;;;;;;;4994806;28;20704;-77
2021/12/05 13:35:45;;;;;;;2.25;1.17;;;;;;;;;;4994481;28;20183;-77
2021/12/05 13:38:31;;;;;;;3.53;1.58;;;;;;;;;;4994539;28;20574;-76
2021/12/05 13:41:17;;;;;;;2.28;1.20;;;;;;;;;;4994173;28;20263;-78
2021/12/05 13:43:53;;;;;;;1.35;0.98;;;;;;;;;;4994684;28;20193;-80
2021/12/05 13:46:37;;;;;;;1.45;1.00;;;;;;;;;;4994484;28;20185;-79
2021/12/05 13:49:23;;;;;;;1.42;0.80;;;;;;;;;;4993282;28;20589;-78
2021/12/05 13:51:49;;;;;;;3.90;1.10;;;;;;;;;;4994136;28;20277;-77
2021/12/05 13:54:24;;;;;;;2.88;1.02;;;;;;;;;;4994140;28;20684;-79
2021/12/05 13:57:06;;;;;;;4.22;0.70;;;;;;;;;;4993022;28;20183;-79
2021/12/05 13:59:32;;;;;;;1.45;0.70;;;;;;;;;;4993819;28;20645;-78
2021/12/05 14:01:58;;;;;;;0.70;0.70;;;;;;;;;;4994030;28;20239;-77
2021/12/05 14:04:27;;;;;;;2.45;0.90;;;;;;;;;;4994677;28;20686;-78
2021/12/05 14:06:53;;;;;;;1.42;0.77;;;;;;;;;;4994052;28;20175;-79
2021/12/05 14:09:22;;;;;;;3.30;0.70;;;;;;;;;;4993632;28;20176;-78
2021/12/05 14:11:51;;;;;;;2.90;0.85;;;;;;;;;;4996037;28;20606;-79
2021/12/05 14:14:19;;;;;;;2.22;0.90;;;;;;;;;;4994060;28;20559;-78
2021/12/05 14:16:46;;;;;;;1.52;1.00;;;;;;;;;;4994263;28;20225;-79
2021/12/05 14:19:14;;;;;;;3.72;0.90;;;;;;;;;;4993564;28;20167;-79
2021/12/05 14:21:41;;;;;;;0.98;0.70;;;;;;;;;;4993522;28;20208;-79
2021/12/05 14:24:07;;;;;;;2.58;0.90;;;;;;;;;;4994901;28;20226;-77
2021/12/05 14:26:39;;;;;;;1.95;1.00;;;;;;;;;;4993656;28;20541;-77
2021/12/05 14:29:07;;;;;;;1.02;0.70;;;;;;;;;;4993819;28;20615;-77
2021/12/05 14:31:35;;;;;;;3.10;1.13;;;;;;;;;;4993669;28;20229;-77
2021/12/05 14:34:02;;;;;;;1.27;1.10;;;;;;;;;;4993741;28;20204;-78
2021/12/05 14:36:35;;;;;;;1.83;0.90;;;;;;;;;;4993862;28;20237;-77
2021/12/05 14:39:08;;;;;;;2.05;1.10;;;;;;;;;;4996178;28;20249;-76
2021/12/05 14:41:34;;;;;;;3.35;0.95;;;;;;;;;;4999985;28;20207;-78
2021/12/05 14:44:00;;;;;;;32.97;16.13;;;;;;;;;;5000291;28;20188;-76
2021/12/05 14:46:26;;;;;;;3.17;2.25;;;;;;;;;;5000529;28;20189;-77
2021/12/05 14:49:01;;;;;;;2.83;1.10;;;;;;;;;;5001077;28;20188;-77
2021/12/05 14:51:38;;;;;;;2.58;1.17;;;;;;;;;;4999652;28;20257;-77
2021/12/05 14:54:05;;;;;;;1.05;0.70;;;;;;;;;;4999890;28;20250;-78
2021/12/05 14:56:32;;;;;;;1.40;0.80;;;;;;;;;;4999993;28;20178;-77
2021/12/05 14:59:05;;;;;;;1.80;1.27;;;;;;;;;;5000288;28;20291;-77
2021/12/05 15:01:31;;;;;;;1.95;0.80;;;;;;;;;;4999843;28;20201;-76
2021/12/05 15:03:59;;;;;;;1.48;0.90;;;;;;;;;;5000096;28;20180;-77
2021/12/05 15:06:39;;;;;;;1.92;1.00;;;;;;;;;;5000102;28;20186;-77
2021/12/05 15:09:07;;;;;;;4.00;0.88;;;;;;;;;;5000025;28;20171;-77
2021/12/05 15:11:33;;;;;;;1.60;1.00;;;;;;;;;;4999592;28;20205;-76
2021/12/05 15:14:07;;;;;;;2.22;0.90;;;;;;;;;;4998629;28;20203;-77
2021/12/05 15:16:33;;;;;;;1.50;0.90;;;;;;;;;;4998675;28;20179;-77
2021/12/05 15:19:00;;;;;;;1.90;1.00;;;;;;;;;;4999936;28;20514;-76
2021/12/05 15:21:27;;;;;;;2.15;0.93;;;;;;;;;;4999432;28;20242;-76
2021/12/05 15:23:54;;;;;;;1.85;0.90;;;;;;;;;;4998654;28;20183;-76
2021/12/05 15:26:21;;;;;;;1.20;1.10;;;;;;;;;;4999571;28;20229;-78
2021/12/05 15:28:48;;;;;;;1.90;1.45;;;;;;;;;;4999250;28;20226;-77
2021/12/05 15:31:14;;;;;;;1.40;0.85;;;;;;;;;;4999437;28;20189;-77
2021/12/05 15:33:40;;;;;;;4.50;0.80;;;;;;;;;;4999773;28;20606;-77
2021/12/05 15:36:07;;;;;;;1.30;1.05;;;;;;;;;;4999857;28;20600;-76
2021/12/05 15:38:35;;;;;;;1.25;1.13;;;;;;;;;;4999797;28;20234;-78
2021/12/05 15:41:10;;;;;;;6.05;3.70;;;;;;;;;;4998239;28;20192;-79
2021/12/05 15:43:37;;;;;;;3.65;3.25;;;;;;;;;;4999729;28;20580;-78
2021/12/05 15:46:07;;;;;;;3.05;2.75;;;;;;;;;;4999644;28;20199;-77
2021/12/05 15:48:35;;;;;;;5.68;5.13;;;;;;;;;;4999945;28;20199;-78
2021/12/05 15:51:04;;;;;;;6.68;4.00;;;;;;;;;;4996102;28;20688;-78
2021/12/05 15:53:32;;;;;;;2.22;1.88;;;;;;;;;;4995291;28;20263;-79
2021/12/05 15:56:00;;;;;;;5.80;3.85;;;;;;;;;;4996801;28;20171;-77
2021/12/05 15:58:31;;;;;;;1.60;1.50;;;;;;;;;;4996584;28;20528;-77
2021/12/05 16:00:59;;;;;;;2.88;1.23;;;;;;;;;;4996126;28;20229;-79
2021/12/05 16:03:27;;;;;;;8.95;3.60;;;;;;;;;;4996458;28;20545;-79
2021/12/05 16:05:58;;;;;;;22.50;12.40;;;;;;;;;;4995178;28;20537;-78
2021/12/05 16:08:27;;;;;;;11.00;6.53;;;;;;;;;;4996276;28;20214;-78
2021/12/05 16:10:59;;;;;;;7.97;4.68;;;;;;;;;;4995837;28;20199;-78
2021/12/05 16:13:26;;;;;;;23.08;13.30;;;;;;;;;;4996347;28;20200;-77
2021/12/05 16:15:53;;;;;;;4.70;3.47;;;;;;;;;;4996330;28;20533;-79
2021/12/05 16:18:20;;;;;;;19.48;11.90;;;;;;;;;;4995968;28;20179;-79
2021/12/05 16:20:46;;;;;;;11.15;6.88;;;;;;;;;;4995028;28;20570;-79
2021/12/05 16:23:23;;;;;;;10.60;5.70;;;;;;;;;;4994837;28;20698;-79
2021/12/05 16:25:56;;;;;;;14.73;11.57;;;;;;;;;;4994956;28;20540;-77
2021/12/05 16:28:26;;;;;;;13.18;7.75;;;;;;;;;;4996066;28;20203;-77
2021/12/05 16:30:56;;;;;;;5.93;4.05;;;;;;;;;;4994077;28;20195;-77
2021/12/05 16:33:22;;;;;;;9.20;4.40;;;;;;;;;;4996075;28;20566;-77
2021/12/05 16:35:50;;;;;;;6.90;5.25;;;;;;;;;;4995943;28;20176;-77
2021/12/05 16:38:22;;;;;;;7.45;6.43;;;;;;;;;;4995811;28;20221;-77
2021/12/05 16:40:54;;;;;;;7.55;5.22;;;;;;;;;;4995291;28;20687;-78
2021/12/05 16:43:20;;;;;;;6.88;4.82;;;;;;;;;;4995916;28;20323;-77
2021/12/05 16:45:46;;;;;;;5.70;4.97;;;;;;;;;;4994465;28;20680;-77
2021/12/05 16:48:13;;;;;;;6.07;4.40;;;;;;;;;;4995897;28;20266;-77
2021/12/05 16:50:39;;;;;;;5.00;4.50;;;;;;;;;;4994951;28;20447;-77
2021/12/05 16:53:04;;;;;;;5.10;4.17;;;;;;;;;;4995460;28;20214;-77
2021/12/05 16:55:31;;;;;;;5.77;4.27;;;;;;;;;;4995613;28;20422;-76
2021/12/05 16:58:14;;;;;;;10.88;7.80;;;;;;;;;;4995430;28;20428;-77
2021/12/05 17:00:41;;;;;;;6.25;5.43;;;;;;;;;;4995142;28;20199;-77
2021/12/05 17:03:08;;;;;;;8.38;5.50;;;;;;;;;;4994892;28;20239;-76
2021/12/05 17:05:39;;;;;;;17.95;15.60;;;;;;;;;;4995624;28;20187;-76
2021/12/05 17:08:13;;;;;;;18.10;16.27;;;;;;;;;;4994187;28;20171;-77
2021/12/05 17:10:41;;;;;;;8.55;7.03;;;;;;;;;;4994927;28;20549;-77
2021/12/05 17:13:09;;;;;;;9.10;8.20;;;;;;;;;;4994909;28;20641;-76
2021/12/05 17:15:36;;;;;;;12.38;10.35;;;;;;;;;;4993980;28;20262;-77
2021/12/05 17:18:04;;;;;;;8.43;5.97;;;;;;;;;;4995950;28;20222;-77
2021/12/05 17:20:35;;;;;;;8.30;7.10;;;;;;;;;;4994590;28;20553;-78
2021/12/05 17:23:05;;;;;;;3.55;3.10;;;;;;;;;;4994817;28;20176;-77
2021/12/05 17:25:31;;;;;;;3.10;2.47;;;;;;;;;;4995043;28;20184;-76
2021/12/05 17:27:57;;;;;;;4.78;2.53;;;;;;;;;;4994887;28;20183;-78
2021/12/05 17:30:23;;;;;;;3.15;2.83;;;;;;;;;;4994444;28;20200;-76
2021/12/05 17:32:49;;;;;;;6.90;3.30;;;;;;;;;;4993362;28;20215;-77
2021/12/05 17:35:18;;;;;;;4.47;3.35;;;;;;;;;;4994493;28;20168;-76
2021/12/05 17:37:46;;;;;;;4.25;3.00;;;;;;;;;;4994589;28;20545;-76
2021/12/05 17:40:14;;;;;;;5.63;4.30;;;;;;;;;;4994382;28;20188;-77
2021/12/05 17:42:41;;;;;;;5.15;2.90;;;;;;;;;;4994720;28;20191;-77
2021/12/05 17:45:09;;;;;;;4.05;3.67;;;;;;;;;;4994565;28;20270;-77
2021/12/05 17:47:35;;;;;;;5.70;3.38;;;;;;;;;;4994446;28;20183;-78
2021/12/05 17:50:04;;;;;;;4.20;3.80;;;;;;;;;;4994010;28;20186;-77
2021/12/05 17:52:32;;;;;;;4.97;3.47;;;;;;;;;;4994303;28;20191;-77
2021/12/05 17:55:04;;;;;;;6.85;3.95;;;;;;;;;;4993515;28;20222;-77
2021/12/05 18:02:44;;;;;;;4.80;4.40;;;;;;;;;;4994456;28;20234;-77
2021/12/05 18:05:16;;;;;;;4.80;4.38;;;;;;;;;;4994233;28;20620;-77
2021/12/05 18:07:42;;;;;;;7.53;4.30;;;;;;;;;;4994140;28;20772;-76
2021/12/05 18:10:10;;;;;;;4.15;3.40;;;;;;;;;;4993652;28;20247;-76
2021/12/05 18:12:37;;;;;;;4.32;3.70;;;;;;;;;;4994114;28;20203;-77
2021/12/05 18:15:05;;;;;;;10.10;8.35;;;;;;;;;;4993338;28;20172;-77
2021/12/05 18:17:31;;;;;;;4.93;3.42;;;;;;;;;;4993896;28;20174;-77
2021/12/05 18:19:57;;;;;;;7.00;3.65;;;;;;;;;;4993594;28;20520;-77
2021/12/05 18:22:23;;;;;;;5.15;4.40;;;;;;;;;;4994144;28;20179;-77
2021/12/05 18:24:49;;;;;;;4.53;3.83;;;;;;;;;;4993867;28;20548;-79
2021/12/05 18:27:16;;;;;;;5.13;4.07;;;;;;;;;;4993904;28;20183;-77
2021/12/05 18:29:42;;;;;;;7.75;3.20;;;;;;;;;;4993342;28;20705;-78
2021/12/05 18:32:10;;;;;;;3.72;3.40;;;;;;;;;;4992395;28;20206;-78
2021/12/05 18:34:37;;;;;;;4.10;3.70;;;;;;;;;;4994057;28;20198;-77
2021/12/05 18:37:04;;;;;;;3.95;3.53;;;;;;;;;;4993717;28;20242;-78
2021/12/05 18:39:37;;;;;;;4.53;3.88;;;;;;;;;;4993439;28;20168;-77
2021/12/05 18:42:06;;;;;;;4.72;4.20;;;;;;;;;;4993433;28;20666;-77
2021/12/05 18:44:36;;;;;;;4.55;4.10;;;;;;;;;;4993848;28;20172;-76
2021/12/05 18:47:02;;;;;;;13.70;12.23;;;;;;;;;;4993742;28;20266;-78
2021/12/05 18:49:29;;;;;;;47.78;30.85;;;;;;;;;;4993316;28;20177;-78
2021/12/05 18:51:55;;;;;;;22.33;14.23;;;;;;;;;;4993457;28;20218;-76
2021/12/05 18:54:22;;;;;;;87.13;48.63;;;;;;;;;;4993742;28;20249;-77
2021/12/05 18:56:48;;;;;;;32.10;18.80;;;;;;;;;;4993763;28;20171;-77
2021/12/05 18:59:14;;;;;;;29.15;17.30;;;;;;;;;;4993325;28;20268;-77
2021/12/05 19:04:41;;;;;;;34.72;21.73;;;;;;;;;;4993854;28;20195;-78
2021/12/05 19:07:13;;;;;;;15.57;10.75;;;;;;;;;;4993592;28;20690;-77
2021/12/05 19:12:08;;;;;;;6.90;5.57;;;;;;;;;;4993270;28;20200;-77
2021/12/05 19:14:37;;;;;;;14.38;11.32;;;;;;;;;;4992140;28;20314;-77
2021/12/05 19:17:23;;;;;;;20.55;14.93;;;;;;;;;;4992375;28;20218;-78
2021/12/05 19:19:51;;;;;;;11.20;8.40;;;;;;;;;;4993106;28;20216;-78
2021/12/05 19:22:30;;;;;;;7.00;5.47;;;;;;;;;;4993419;28;20645;-79
2021/12/05 19:24:56;;;;;;;10.68;8.07;;;;;;;;;;4993813;28;20172;-78
2021/12/05 19:27:22;;;;;;;10.48;7.57;;;;;;;;;;4997447;28;20594;-79
2021/12/05 19:29:49;;;;;;;11.10;8.23;;;;;;;;;;4996606;28;20186;-78
2021/12/05 19:32:15;;;;;;;12.57;9.18;;;;;;;;;;4996759;28;20422;-77
2021/12/05 19:34:41;;;;;;;12.73;9.27;;;;;;;;;;4997106;28;20744;-77
2021/12/05 19:37:08;;;;;;;13.40;10.13;;;;;;;;;;4996933;28;20176;-78
2021/12/05 19:39:35;;;;;;;17.27;11.20;;;;;;;;;;4996724;28;20184;-78
2021/12/05 19:42:03;;;;;;;12.68;9.93;;;;;;;;;;4996871;28;20274;-77
2021/12/05 19:44:29;;;;;;;11.25;10.05;;;;;;;;;;4996688;28;20179;-77
2021/12/05 19:46:56;;;;;;;10.57;6.97;;;;;;;;;;4996757;28;20231;-79
2021/12/05 19:49:22;;;;;;;12.93;8.40;;;;;;;;;;4996485;28;20181;-77
2021/12/05 19:51:49;;;;;;;12.05;8.90;;;;;;;;;;4996548;28;20576;-77
2021/12/05 19:54:16;;;;;;;10.13;8.27;;;;;;;;;;4996436;28;20208;-77
2021/12/05 19:56:43;;;;;;;10.38;8.52;;;;;;;;;;4996576;28;20258;-78
2021/12/05 19:59:10;;;;;;;11.77;10.00;;;;;;;;;;4996663;28;20178;-76
2021/12/05 20:01:36;;;;;;;16.25;11.88;;;;;;;;;;4996509;28;20230;-79
2021/12/05 20:04:03;;;;;;;18.20;14.20;;;;;;;;;;4996430;28;20567;-77
2021/12/05 20:06:30;;;;;;;20.70;11.93;;;;;;;;;;4996005;28;20226;-78
2021/12/05 20:08:56;;;;;;;11.98;8.82;;;;;;;;;;4996528;28;20183;-79
2021/12/05 20:11:22;;;;;;;16.45;11.02;;;;;;;;;;4996054;28;20210;-77
2021/12/05 20:13:48;;;;;;;11.18;7.97;;;;;;;;;;4996183;28;20206;-79